createdAt,value
2023-05-13T00:01:20.884Z,1.93
2023-05-13T00:03:47.721Z,2.20
2023-05-13T00:06:14.772Z,3.20
2023-05-13T00:08:41.478Z,1.50
2023-05-13T00:11:08.231Z,1.93
2023-05-13T00:13:34.939Z,2.00
2023-05-13T00:16:02.876Z,1.93
2023-05-13T00:18:29.908Z,2.63
2023-05-13T00:20:56.625Z,3.97
2023-05-13T00:23:23.258Z,2.23
2023-05-13T00:25:50.042Z,3.00
2023-05-13T00:28:16.924Z,1.50
2023-05-13T00:30:45.467Z,2.70
2023-05-13T00:33:12.298Z,1.80
2023-05-13T00:35:38.947Z,1.90
2023-05-13T00:38:05.647Z,1.60
2023-05-13T00:40:34.690Z,2.07
2023-05-13T00:43:01.432Z,3.03
2023-05-13T00:45:28.399Z,1.90
2023-05-13T00:47:55.122Z,2.97
2023-05-13T00:50:22.114Z,3.10
2023-05-13T00:52:50.969Z,2.20
2023-05-13T00:55:17.889Z,2.40
2023-05-13T00:57:44.612Z,2.67
2023-05-13T01:00:12.231Z,2.43
2023-05-13T01:02:43.195Z,2.67
2023-05-13T01:05:24.821Z,3.50
2023-05-13T01:08:20.217Z,3.80
2023-05-13T01:10:51.371Z,2.67
2023-05-13T01:13:24.433Z,1.73
2023-05-13T01:16:01.730Z,2.00
2023-05-13T01:18:36.105Z,2.87
2023-05-13T01:21:04.909Z,2.57
2023-05-13T01:23:32.196Z,2.50
2023-05-13T01:25:59.496Z,4.43
2023-05-13T01:28:26.832Z,2.40
2023-05-13T01:30:57.099Z,1.93
2023-05-13T01:33:26.360Z,2.80
2023-05-13T01:35:53.432Z,5.57
2023-05-13T01:38:21.735Z,2.30
2023-05-13T01:40:53.279Z,3.83
2023-05-13T01:43:20.003Z,2.87
2023-05-13T01:45:47.384Z,3.37
2023-05-13T01:48:14.710Z,4.30
2023-05-13T01:50:44.480Z,4.10
2023-05-13T01:53:11.866Z,2.43
2023-05-13T01:55:38.941Z,6.70
2023-05-13T01:58:05.866Z,2.67
2023-05-13T02:00:32.550Z,3.43
2023-05-13T02:02:59.317Z,2.77
2023-05-13T02:05:26.150Z,2.97
2023-05-13T02:07:53.934Z,4.17
2023-05-13T02:10:20.830Z,2.23
2023-05-13T02:12:50.135Z,3.87
2023-05-13T02:15:18.227Z,3.20
2023-05-13T02:17:45.006Z,3.03
2023-05-13T02:20:12.641Z,2.40
2023-05-13T02:22:39.302Z,7.17
2023-05-13T02:25:07.651Z,2.90
2023-05-13T02:27:37.014Z,2.40
2023-05-13T02:30:04.690Z,2.13
2023-05-13T02:32:31.832Z,3.50
2023-05-13T02:34:58.474Z,3.27
2023-05-13T02:37:25.076Z,2.57
2023-05-13T02:39:59.090Z,3.53
2023-05-13T02:42:25.857Z,3.90
2023-05-13T02:44:52.574Z,4.47
2023-05-13T02:47:20.024Z,5.30
2023-05-13T02:49:46.810Z,2.57
2023-05-13T02:52:13.467Z,4.17
2023-05-13T02:54:40.185Z,3.40
2023-05-13T02:57:07.111Z,3.93
2023-05-13T02:59:34.235Z,3.27
2023-05-13T03:02:00.899Z,2.73
2023-05-13T03:04:27.558Z,3.47
2023-05-13T03:06:54.309Z,2.70
2023-05-13T03:09:21.049Z,5.10
2023-05-13T03:11:48.020Z,2.87
2023-05-13T03:14:14.710Z,4.60
2023-05-13T03:16:41.385Z,4.30
2023-05-13T03:19:08.166Z,4.30
2023-05-13T03:21:34.938Z,4.33
2023-05-13T03:24:01.721Z,5.93
2023-05-13T03:26:28.386Z,3.60
2023-05-13T03:28:55.562Z,2.70
2023-05-13T03:31:23.086Z,3.60
2023-05-13T03:33:49.868Z,4.17
2023-05-13T03:36:16.552Z,5.57
2023-05-13T03:38:43.286Z,3.60
2023-05-13T03:41:10.110Z,4.53
2023-05-13T03:43:36.906Z,3.03
2023-05-13T03:46:08.082Z,3.93
2023-05-13T03:48:34.710Z,3.00
2023-05-13T03:51:02.840Z,3.57
2023-05-13T03:53:29.927Z,3.67
2023-05-13T03:55:57.565Z,2.53
2023-05-13T03:58:24.195Z,3.37
2023-05-13T04:00:50.897Z,3.33
2023-05-13T04:03:18.584Z,3.70
2023-05-13T04:05:49.200Z,4.53
2023-05-13T04:08:15.934Z,5.60
2023-05-13T04:10:43.286Z,3.97
2023-05-13T04:13:11.271Z,5.17
2023-05-13T04:15:37.942Z,4.43
2023-05-13T04:18:06.093Z,3.33
2023-05-13T04:20:34.371Z,5.43
2023-05-13T04:23:01.807Z,3.50
2023-05-13T04:25:29.465Z,4.87
2023-05-13T04:27:56.137Z,4.77
2023-05-13T04:30:28.622Z,3.50
2023-05-13T04:32:55.792Z,5.20
2023-05-13T04:35:22.924Z,4.93
2023-05-13T04:37:53.739Z,5.53
2023-05-13T04:40:21.561Z,4.27
2023-05-13T04:42:54.537Z,6.23
2023-05-13T04:45:25.772Z,4.57
2023-05-13T04:47:52.414Z,4.53
2023-05-13T04:50:19.456Z,3.93
2023-05-13T04:52:47.539Z,5.87
2023-05-13T04:55:15.062Z,6.57
2023-05-13T04:57:42.459Z,3.80
2023-05-13T05:00:11.085Z,3.90
2023-05-13T05:02:39.375Z,4.60
2023-05-13T05:05:06.530Z,3.63
2023-05-13T05:07:40.222Z,4.53
2023-05-13T05:10:08.533Z,4.17
2023-05-13T05:12:38.201Z,4.77
2023-05-13T05:15:06.260Z,5.07
2023-05-13T05:17:34.047Z,4.60
2023-05-13T05:20:02.634Z,6.67
2023-05-13T05:22:29.491Z,4.77
2023-05-13T05:24:56.710Z,3.73
2023-05-13T05:27:24.973Z,4.17
2023-05-13T05:29:52.086Z,5.03
2023-05-13T05:32:19.539Z,6.43
2023-05-13T05:34:46.325Z,5.97
2023-05-13T05:37:13.147Z,5.80
2023-05-13T05:39:41.111Z,5.07
2023-05-13T05:42:08.730Z,4.00
2023-05-13T05:44:36.167Z,4.40
2023-05-13T05:47:03.201Z,3.60
2023-05-13T05:49:32.602Z,5.97
2023-05-13T05:51:59.314Z,7.70
2023-05-13T05:54:28.128Z,5.07
2023-05-13T05:56:54.857Z,3.83
2023-05-13T05:59:21.579Z,9.40
2023-05-13T06:01:48.865Z,3.93
2023-05-13T06:04:15.733Z,3.93
2023-05-13T06:06:42.446Z,3.60
2023-05-13T06:09:09.089Z,3.50
2023-05-13T06:11:35.801Z,5.07
2023-05-13T06:14:03.330Z,3.40
2023-05-13T06:16:30.240Z,4.80
2023-05-13T06:18:57.189Z,5.00
2023-05-13T06:21:25.254Z,3.90
2023-05-13T06:23:51.951Z,3.37
2023-05-13T06:26:20.829Z,3.53
2023-05-13T06:28:47.467Z,4.57
2023-05-13T06:31:15.064Z,4.40
2023-05-13T06:33:43.591Z,5.30
2023-05-13T06:36:10.276Z,3.63
2023-05-13T06:38:37.099Z,3.83
2023-05-13T06:41:03.994Z,4.00
2023-05-13T06:43:36.084Z,3.93
2023-05-13T06:46:13.120Z,3.57
2023-05-13T06:48:39.952Z,2.50
2023-05-13T06:51:07.081Z,2.97
2023-05-13T06:53:33.801Z,3.03
2023-05-13T06:56:00.468Z,2.97
2023-05-13T06:58:27.761Z,3.10
2023-05-13T07:00:54.487Z,5.20
2023-05-13T07:03:21.214Z,3.27
2023-05-13T07:05:47.959Z,3.17
2023-05-13T07:08:17.821Z,3.80
2023-05-13T07:10:44.973Z,5.10
2023-05-13T07:13:12.413Z,3.13
2023-05-13T07:15:39.183Z,3.07
2023-05-13T07:18:05.927Z,2.57
2023-05-13T07:20:32.839Z,3.77
2023-05-13T07:22:59.495Z,5.50
2023-05-13T07:25:26.210Z,4.33
2023-05-13T07:27:52.933Z,3.87
2023-05-13T07:30:19.751Z,3.50
2023-05-13T07:32:46.740Z,3.60
2023-05-13T07:35:13.740Z,3.50
2023-05-13T07:37:40.520Z,3.37
2023-05-13T07:40:10.654Z,3.50
2023-05-13T07:42:37.596Z,3.87
2023-05-13T07:45:04.788Z,3.10
2023-05-13T07:47:31.944Z,2.53
2023-05-13T07:49:58.867Z,3.23
2023-05-13T07:52:26.291Z,2.80
2023-05-13T07:54:52.991Z,3.43
2023-05-13T07:57:19.686Z,5.30
2023-05-13T07:59:46.340Z,4.43
2023-05-13T08:02:13.086Z,2.97
2023-05-13T08:04:40.109Z,3.10
2023-05-13T08:07:06.884Z,2.87
2023-05-13T08:09:33.532Z,3.10
2023-05-13T08:12:00.570Z,3.83
2023-05-13T08:14:27.291Z,2.60
2023-05-13T08:16:54.437Z,3.77
2023-05-13T08:19:21.483Z,3.60
2023-05-13T08:21:48.374Z,3.93
2023-05-13T08:24:15.031Z,2.87
2023-05-13T08:26:41.985Z,3.00
2023-05-13T08:29:12.783Z,3.30
2023-05-13T08:31:39.422Z,2.10
2023-05-13T08:34:06.437Z,4.57
2023-05-13T08:36:33.877Z,3.73
2023-05-13T08:39:01.361Z,2.80
2023-05-13T08:41:29.865Z,3.33
2023-05-13T08:44:00.714Z,3.90
2023-05-13T08:46:28.891Z,3.37
2023-05-13T08:48:55.997Z,3.00
2023-05-13T08:51:22.816Z,4.07
2023-05-13T08:53:51.606Z,3.90
2023-05-13T08:56:18.387Z,2.80
2023-05-13T08:58:44.990Z,2.63
2023-05-13T09:01:12.470Z,2.30
2023-05-13T09:03:52.383Z,4.50
2023-05-13T09:06:19.034Z,4.70
2023-05-13T09:08:45.983Z,3.47
2023-05-13T09:11:16.294Z,3.67
2023-05-13T09:13:44.605Z,6.18
2023-05-13T09:16:14.161Z,2.92
2023-05-13T09:18:42.135Z,3.35
2023-05-13T09:21:24.825Z,4.78
2023-05-13T09:23:56.365Z,3.50
2023-05-13T09:26:30.236Z,4.10
2023-05-13T09:29:21.299Z,7.28
2023-05-13T09:31:54.928Z,3.03
2023-05-13T09:34:26.857Z,3.22
2023-05-13T09:37:08.096Z,3.30
2023-05-13T09:39:40.146Z,2.30
2023-05-13T09:42:15.673Z,2.72
2023-05-13T09:44:48.862Z,5.13
2023-05-13T09:47:17.004Z,5.75
2023-05-13T09:49:44.893Z,2.83
2023-05-13T09:52:17.115Z,2.20
2023-05-13T09:54:44.296Z,2.83
2023-05-13T09:57:13.642Z,3.08
2023-05-13T09:59:40.617Z,4.20
2023-05-13T10:02:08.544Z,3.00
2023-05-13T10:04:35.215Z,3.35
2023-05-13T10:07:09.604Z,2.85
2023-05-13T10:09:37.865Z,2.75
2023-05-13T10:12:07.520Z,4.07
2023-05-13T10:14:36.893Z,3.70
2023-05-13T10:17:05.277Z,4.47
2023-05-13T10:19:32.421Z,3.65
2023-05-13T10:21:59.326Z,3.10
2023-05-13T10:24:28.848Z,4.13
2023-05-13T10:26:56.331Z,3.78
2023-05-13T10:29:24.804Z,3.42
2023-05-13T10:31:51.813Z,2.67
2023-05-13T10:34:18.554Z,2.58
2023-05-13T10:37:03.708Z,3.28
2023-05-13T10:40:08.625Z,4.15
2023-05-13T10:42:40.908Z,3.97
2023-05-13T10:45:10.964Z,4.28
2023-05-13T10:47:38.313Z,3.13
2023-05-13T10:50:25.882Z,4.00
2023-05-13T10:52:57.107Z,3.25
2023-05-13T10:55:26.123Z,4.15
2023-05-13T10:58:04.667Z,3.55
2023-05-13T11:00:31.974Z,4.50
2023-05-13T11:03:29.750Z,3.33
2023-05-13T11:06:01.031Z,4.55
2023-05-13T11:08:40.813Z,5.28
2023-05-13T11:11:23.274Z,4.82
2023-05-13T11:13:51.321Z,3.55
2023-05-13T11:16:23.090Z,5.93
2023-05-13T11:18:51.891Z,5.18
2023-05-13T11:21:30.116Z,5.45
2023-05-13T11:23:59.022Z,4.63
2023-05-13T11:26:25.809Z,3.28
2023-05-13T11:29:03.512Z,4.70
2023-05-13T11:31:43.563Z,3.85
2023-05-13T11:34:13.005Z,5.13
2023-05-13T11:36:41.934Z,4.30
2023-05-13T11:39:21.371Z,5.28
2023-05-13T11:41:53.287Z,2.67
2023-05-13T11:44:21.551Z,5.03
2023-05-13T11:46:59.835Z,3.55
2023-05-13T11:49:32.872Z,7.32
2023-05-13T11:52:03.368Z,5.15
2023-05-13T11:54:30.297Z,4.35
2023-05-13T11:56:57.080Z,3.25
2023-05-13T11:59:24.634Z,5.30
2023-05-13T12:02:02.003Z,5.80
2023-05-13T12:04:30.698Z,5.13
2023-05-13T12:06:58.042Z,3.55
2023-05-13T12:09:25.476Z,4.05
2023-05-13T12:11:53.771Z,5.28
2023-05-13T12:14:21.554Z,5.67
2023-05-13T12:16:48.827Z,5.00
2023-05-13T12:19:15.654Z,5.22
2023-05-13T12:21:42.557Z,4.30
2023-05-13T12:24:22.082Z,2.73
2023-05-13T12:26:49.381Z,3.83
2023-05-13T12:29:16.296Z,7.20
2023-05-13T12:32:03.919Z,3.27
2023-05-13T12:34:32.473Z,5.20
2023-05-13T12:37:11.016Z,3.97
2023-05-13T12:39:38.315Z,4.13
2023-05-13T12:42:05.192Z,4.47
2023-05-13T12:44:32.053Z,8.03
2023-05-13T12:46:59.248Z,4.93
2023-05-13T12:49:26.280Z,3.20
2023-05-13T12:51:52.949Z,3.67
2023-05-13T12:54:19.632Z,3.93
2023-05-13T12:56:46.520Z,4.77
2023-05-13T12:59:14.371Z,6.00
2023-05-13T13:01:42.779Z,3.87
2023-05-13T13:04:12.722Z,3.37
2023-05-13T13:06:39.704Z,3.67
2023-05-13T13:09:06.400Z,3.63
2023-05-13T13:11:33.074Z,4.40
2023-05-13T13:13:59.747Z,3.37
2023-05-13T13:16:32.946Z,3.90
2023-05-13T13:19:01.793Z,3.83
2023-05-13T13:21:28.899Z,3.00
2023-05-13T13:23:55.567Z,3.80
2023-05-13T13:26:23.173Z,4.40
2023-05-13T13:28:52.804Z,4.63
2023-05-13T13:31:19.455Z,5.00
2023-05-13T13:33:46.172Z,4.60
2023-05-13T13:36:15.142Z,6.57
2023-05-13T13:38:41.780Z,3.73
2023-05-13T13:41:08.538Z,5.93
2023-05-13T13:43:35.212Z,4.13
2023-05-13T13:46:02.232Z,2.53
2023-05-13T13:48:28.953Z,3.27
2023-05-13T13:50:55.567Z,4.07
2023-05-13T13:53:22.263Z,5.70
2023-05-13T13:55:49.011Z,4.00
2023-05-13T13:58:15.771Z,2.70
2023-05-13T14:00:42.470Z,3.50
2023-05-13T14:03:09.292Z,3.10
2023-05-13T14:05:39.077Z,2.90
2023-05-13T14:08:08.459Z,3.77
2023-05-13T14:10:35.218Z,2.70
2023-05-13T14:13:01.988Z,4.63
2023-05-13T14:15:30.585Z,3.43
2023-05-13T14:17:57.616Z,2.90
2023-05-13T14:20:25.024Z,3.37
2023-05-13T14:22:51.777Z,3.70
2023-05-13T14:25:18.446Z,3.43
2023-05-13T14:27:45.390Z,2.87
2023-05-13T14:30:15.152Z,6.83
2023-05-13T14:32:45.595Z,3.97
2023-05-13T14:35:13.132Z,4.50
2023-05-13T14:37:41.463Z,4.97
2023-05-13T14:40:11.113Z,3.13
2023-05-13T14:42:37.886Z,3.47
2023-05-13T14:45:04.912Z,5.20
2023-05-13T14:47:31.792Z,3.20
2023-05-13T14:49:58.634Z,4.40
2023-05-13T14:52:25.482Z,5.10
2023-05-13T14:54:52.216Z,5.13
2023-05-13T14:57:19.087Z,3.03
2023-05-13T14:59:45.719Z,3.70
2023-05-13T15:02:13.821Z,3.63
2023-05-13T15:04:40.584Z,3.40
2023-05-13T15:07:07.429Z,3.50
2023-05-13T15:09:34.080Z,6.47
2023-05-13T15:12:00.877Z,3.10
2023-05-13T15:14:28.254Z,2.53
2023-05-13T15:16:55.106Z,6.00
2023-05-13T15:19:21.827Z,5.20
2023-05-13T15:21:48.444Z,2.83
2023-05-13T15:24:15.220Z,2.70
2023-05-13T15:26:41.865Z,2.87
2023-05-13T15:29:08.527Z,2.50
2023-05-13T15:31:35.414Z,5.00
2023-05-13T15:34:03.178Z,3.70
2023-05-13T15:36:29.849Z,2.50
2023-05-13T15:39:10.799Z,3.27
2023-05-13T15:41:37.674Z,5.07
2023-05-13T15:44:05.233Z,4.20
2023-05-13T15:46:33.566Z,3.67
2023-05-13T15:49:01.051Z,3.87
2023-05-13T15:51:28.291Z,2.90
2023-05-13T15:53:54.942Z,3.53
2023-05-13T15:56:25.699Z,4.40
2023-05-13T15:58:52.882Z,3.57
2023-05-13T16:01:19.586Z,5.07
2023-05-13T16:03:46.318Z,5.27
2023-05-13T16:06:13.373Z,4.40
2023-05-13T16:08:39.996Z,6.73
2023-05-13T16:11:06.721Z,3.47
2023-05-13T16:13:33.447Z,4.30
2023-05-13T16:16:00.216Z,4.80
2023-05-13T16:18:26.956Z,3.73
2023-05-13T16:20:54.854Z,4.27
2023-05-13T16:23:21.562Z,3.60
2023-05-13T16:25:48.198Z,2.40
2023-05-13T16:28:15.484Z,3.43
2023-05-13T16:30:42.567Z,3.77
2023-05-13T16:33:09.581Z,6.83
2023-05-13T16:35:38.822Z,2.80
2023-05-13T16:38:05.929Z,5.63
2023-05-13T16:40:33.289Z,3.00
2023-05-13T16:43:03.264Z,2.73
2023-05-13T16:45:30.949Z,5.73
2023-05-13T16:47:57.774Z,3.63
2023-05-13T16:50:24.800Z,4.83
2023-05-13T16:52:54.852Z,3.50
2023-05-13T16:55:22.395Z,5.83
2023-05-13T16:57:49.099Z,3.90
2023-05-13T17:00:16.106Z,3.43
2023-05-13T17:02:43.264Z,3.63
2023-05-13T17:05:10.017Z,4.03
2023-05-13T17:07:36.734Z,3.57
2023-05-13T17:10:03.803Z,4.53
2023-05-13T17:12:30.571Z,4.30
2023-05-13T17:14:57.248Z,2.77
2023-05-13T17:17:23.983Z,4.40
2023-05-13T17:19:50.656Z,3.57
2023-05-13T17:22:17.379Z,5.10
2023-05-13T17:24:44.044Z,4.17
2023-05-13T17:27:10.892Z,4.50
2023-05-13T17:29:37.688Z,5.53
2023-05-13T17:32:05.196Z,3.97
2023-05-13T17:34:31.850Z,4.43
2023-05-13T17:36:58.540Z,4.20
2023-05-13T17:39:25.372Z,3.67
2023-05-13T17:41:52.198Z,7.73
2023-05-13T17:44:19.959Z,3.00
2023-05-13T17:46:46.725Z,3.77
2023-05-13T17:49:19.028Z,8.63
2023-05-13T17:51:45.782Z,3.50
2023-05-13T17:54:12.472Z,4.47
2023-05-13T17:56:39.215Z,3.20
2023-05-13T17:59:06.777Z,2.57
2023-05-13T18:01:33.466Z,3.83
2023-05-13T18:04:00.756Z,3.70
2023-05-13T18:06:27.480Z,2.63
2023-05-13T18:08:54.386Z,5.20
2023-05-13T18:11:23.761Z,4.77
2023-05-13T18:13:58.580Z,3.60
2023-05-13T18:16:25.346Z,4.97
2023-05-13T18:18:52.104Z,3.20
2023-05-13T18:21:18.889Z,4.60
2023-05-13T18:23:46.496Z,4.50
2023-05-13T18:26:16.317Z,3.40
2023-05-13T18:28:45.756Z,3.30
2023-05-13T18:31:12.562Z,3.43
2023-05-13T18:33:45.484Z,5.43
2023-05-13T18:36:12.221Z,3.47
2023-05-13T18:38:41.790Z,4.50
2023-05-13T18:41:09.222Z,3.43
2023-05-13T18:43:35.882Z,4.30
2023-05-13T18:46:02.603Z,3.20
2023-05-13T18:48:29.347Z,4.30
2023-05-13T18:50:58.723Z,4.83
2023-05-13T18:53:25.392Z,6.10
2023-05-13T18:55:52.256Z,6.03
2023-05-13T18:58:21.836Z,3.13
2023-05-13T19:00:48.656Z,3.53
2023-05-13T19:03:15.550Z,4.83
2023-05-13T19:05:42.321Z,3.57
2023-05-13T19:08:08.977Z,3.77
2023-05-13T19:10:40.008Z,5.17
2023-05-13T19:13:07.515Z,3.57
2023-05-13T19:15:34.253Z,5.73
2023-05-13T19:18:01.276Z,4.77
2023-05-13T19:20:29.731Z,5.47
2023-05-13T19:22:56.419Z,3.17
2023-05-13T19:25:26.062Z,3.60
2023-05-13T19:27:52.919Z,3.37
2023-05-13T19:30:19.643Z,3.77
2023-05-13T19:32:46.707Z,4.13
2023-05-13T19:35:13.379Z,3.50
2023-05-13T19:37:40.325Z,4.03
2023-05-13T19:40:10.732Z,6.50
2023-05-13T19:42:37.818Z,4.23
2023-05-13T19:45:07.533Z,4.87
2023-05-13T19:47:37.461Z,4.23
2023-05-13T19:50:04.751Z,5.00
2023-05-13T19:52:31.462Z,5.50
2023-05-13T19:54:58.556Z,3.83
2023-05-13T19:57:28.012Z,5.63
2023-05-13T19:59:55.982Z,6.10
2023-05-13T20:02:22.766Z,5.73
2023-05-13T20:04:49.498Z,6.33
2023-05-13T20:07:16.200Z,5.77
2023-05-13T20:09:43.007Z,6.00
2023-05-13T20:12:09.838Z,4.87
2023-05-13T20:14:47.011Z,6.00
2023-05-13T20:17:19.417Z,6.37
2023-05-13T20:19:49.593Z,5.33
2023-05-13T20:22:17.815Z,5.63
2023-05-13T20:24:48.866Z,5.93
2023-05-13T20:27:16.899Z,11.63
2023-05-13T20:29:45.712Z,17.60
2023-05-13T20:32:12.883Z,18.37
2023-05-13T20:34:39.861Z,23.60
2023-05-13T20:37:06.685Z,25.20
2023-05-13T20:39:33.332Z,29.30
2023-05-13T20:41:59.960Z,22.43
2023-05-13T20:44:26.640Z,12.40
2023-05-13T20:46:53.372Z,7.67
2023-05-13T20:49:20.042Z,8.37
2023-05-13T20:51:48.140Z,9.87
2023-05-13T20:54:15.301Z,10.10
2023-05-13T20:56:41.952Z,8.57
2023-05-13T20:59:08.882Z,7.40
2023-05-13T21:01:36.101Z,5.83
2023-05-13T21:04:05.853Z,6.97
2023-05-13T21:06:32.962Z,7.77
2023-05-13T21:08:59.580Z,6.80
2023-05-13T21:11:26.466Z,6.40
2023-05-13T21:13:53.194Z,6.37
2023-05-13T21:16:19.858Z,5.93
2023-05-13T21:18:46.683Z,4.93
2023-05-13T21:21:13.336Z,5.43
2023-05-13T21:23:42.434Z,6.20
2023-05-13T21:26:13.176Z,5.67
2023-05-13T21:28:40.000Z,6.67
2023-05-13T21:31:07.151Z,7.03
2023-05-13T21:33:33.887Z,5.73
2023-05-13T21:36:00.481Z,4.93
2023-05-13T21:38:27.259Z,6.77
2023-05-13T21:40:54.441Z,5.63
2023-05-13T21:43:21.114Z,6.13
2023-05-13T21:45:48.135Z,4.33
2023-05-13T21:48:15.162Z,5.47
2023-05-13T21:50:41.998Z,6.10
2023-05-13T21:53:08.647Z,6.27
2023-05-13T21:55:35.247Z,6.93
2023-05-13T21:58:02.955Z,7.63
2023-05-13T22:00:30.145Z,7.40
2023-05-13T22:03:01.278Z,8.73
2023-05-13T22:05:28.314Z,6.07
2023-05-13T22:07:55.133Z,6.73
2023-05-13T22:10:21.896Z,6.63
2023-05-13T22:12:48.736Z,5.83
2023-05-13T22:15:15.714Z,4.60
2023-05-13T22:17:42.462Z,5.00
2023-05-13T22:20:09.535Z,5.67
2023-05-13T22:22:36.211Z,5.37
2023-05-13T22:25:03.347Z,5.13
2023-05-13T22:27:30.092Z,5.27
2023-05-13T22:29:56.821Z,8.07
2023-05-13T22:32:23.651Z,5.73
2023-05-13T22:34:50.832Z,6.30
2023-05-13T22:37:17.440Z,6.83
2023-05-13T22:39:44.243Z,8.30
2023-05-13T22:42:11.062Z,6.73
2023-05-13T22:44:38.700Z,6.57
2023-05-13T22:47:05.924Z,5.43
2023-05-13T22:49:32.559Z,6.93
2023-05-13T22:51:59.236Z,5.47
2023-05-13T22:54:25.963Z,7.63
2023-05-13T22:56:52.662Z,5.47
2023-05-13T22:59:19.335Z,6.10
2023-05-13T23:01:46.111Z,5.90
2023-05-13T23:04:12.920Z,5.77
2023-05-13T23:06:39.578Z,7.57
2023-05-13T23:09:07.459Z,7.27
2023-05-13T23:11:36.116Z,5.47
2023-05-13T23:14:02.752Z,6.10
2023-05-13T23:16:29.567Z,6.20
2023-05-13T23:18:56.330Z,7.43
2023-05-13T23:21:23.021Z,6.13
2023-05-13T23:23:50.353Z,7.10
2023-05-13T23:26:17.143Z,7.87
2023-05-13T23:28:43.829Z,5.10
2023-05-13T23:31:10.607Z,5.87
2023-05-13T23:33:37.281Z,8.50
2023-05-13T23:36:04.183Z,7.43
2023-05-13T23:38:30.825Z,7.13
2023-05-13T23:40:57.477Z,7.27
2023-05-13T23:43:24.077Z,6.00
2023-05-13T23:45:50.935Z,6.67
2023-05-13T23:48:17.619Z,5.97
2023-05-13T23:50:44.350Z,6.80
2023-05-13T23:53:11.008Z,5.27
2023-05-13T23:55:37.650Z,6.57
2023-05-13T23:58:04.430Z,6.20
